sensor_id;sensor_type;location;lat;lon;timestamp;pressure;altitude;pressure_sealevel;temperature;humidity
64632;BME280;58358;50.936;0.246;2023-05-15T00:01:59;101133.95;;;13.73;76.11
64632;BME280;58358;50.936;0.246;2023-05-15T00:04:24;101134.45;;;13.41;77.32
64632;BME280;58358;50.936;0.246;2023-05-15T00:06:50;101131.03;;;14.11;74.82
64632;BME280;58358;50.936;0.246;2023-05-15T00:09:16;101128.30;;;12.08;81.82
64632;BME280;58358;50.936;0.246;2023-05-15T00:11:41;101129.21;;;13.15;77.00
64632;BME280;58358;50.936;0.246;2023-05-15T00:14:06;101126.69;;;12.39;79.11
64632;BME280;58358;50.936;0.246;2023-05-15T00:16:32;101125.23;;;11.85;86.03
64632;BME280;58358;50.936;0.246;2023-05-15T00:18:57;101129.26;;;13.64;78.75
64632;BME280;58358;50.936;0.246;2023-05-15T00:21:23;101126.51;;;12.98;81.07
64632;BME280;58358;50.936;0.246;2023-05-15T00:23:48;101124.88;;;13.09;80.55
64632;BME280;58358;50.936;0.246;2023-05-15T00:26:13;101127.74;;;13.13;81.01
64632;BME280;58358;50.936;0.246;2023-05-15T00:28:39;101124.16;;;12.58;80.86
64632;BME280;58358;50.936;0.246;2023-05-15T00:31:04;101120.03;;;12.82;81.54
64632;BME280;58358;50.936;0.246;2023-05-15T00:33:29;101119.19;;;13.01;79.09
64632;BME280;58358;50.936;0.246;2023-05-15T00:36:00;101114.31;;;11.39;86.63
64632;BME280;58358;50.936;0.246;2023-05-15T00:38:20;101113.16;;;12.56;82.90
64632;BME280;58358;50.936;0.246;2023-05-15T00:40:46;101117.31;;;12.89;80.36
64632;BME280;58358;50.936;0.246;2023-05-15T00:43:11;101115.66;;;13.05;79.54
64632;BME280;58358;50.936;0.246;2023-05-15T00:45:38;101114.20;;;13.16;79.96
64632;BME280;58358;50.936;0.246;2023-05-15T00:48:02;101110.38;;;12.92;78.71
64632;BME280;58358;50.936;0.246;2023-05-15T00:50:28;101106.85;;;14.10;74.79
64632;BME280;58358;50.936;0.246;2023-05-15T00:52:52;101109.43;;;13.03;78.75
64632;BME280;58358;50.936;0.246;2023-05-15T00:55:18;101106.40;;;13.78;76.96
64632;BME280;58358;50.936;0.246;2023-05-15T00:57:43;101106.60;;;13.24;79.34
64632;BME280;58358;50.936;0.246;2023-05-15T01:00:10;101103.36;;;13.34;78.05
64632;BME280;58358;50.936;0.246;2023-05-15T01:02:34;101101.07;;;13.18;77.35
64632;BME280;58358;50.936;0.246;2023-05-15T01:04:59;101093.14;;;13.95;74.94
64632;BME280;58358;50.936;0.246;2023-05-15T01:07:24;101094.62;;;14.45;73.95
64632;BME280;58358;50.936;0.246;2023-05-15T01:09:51;101097.63;;;14.04;74.64
64632;BME280;58358;50.936;0.246;2023-05-15T01:12:16;101097.34;;;14.09;75.37
64632;BME280;58358;50.936;0.246;2023-05-15T01:14:40;101096.94;;;12.52;78.52
64632;BME280;58358;50.936;0.246;2023-05-15T01:17:06;101098.07;;;12.86;78.86
64632;BME280;58358;50.936;0.246;2023-05-15T01:19:31;101095.05;;;12.30;81.72
64632;BME280;58358;50.936;0.246;2023-05-15T01:22:09;101098.27;;;12.87;80.88
64632;BME280;58358;50.936;0.246;2023-05-15T01:24:33;101098.95;;;12.51;82.35
64632;BME280;58358;50.936;0.246;2023-05-15T01:29:18;101100.05;;;11.54;83.02
64632;BME280;58358;50.936;0.246;2023-05-15T01:31:40;101097.33;;;13.07;79.36
64632;BME280;58358;50.936;0.246;2023-05-15T01:34:07;101097.09;;;13.06;79.36
64632;BME280;58358;50.936;0.246;2023-05-15T01:36:36;101094.29;;;13.40;78.68
64632;BME280;58358;50.936;0.246;2023-05-15T01:38:57;101094.25;;;13.42;78.85
64632;BME280;58358;50.936;0.246;2023-05-15T01:41:23;101087.61;;;13.54;78.35
64632;BME280;58358;50.936;0.246;2023-05-15T01:43:51;101083.44;;;13.51;76.27
64632;BME280;58358;50.936;0.246;2023-05-15T01:46:13;101082.67;;;13.33;77.06
64632;BME280;58358;50.936;0.246;2023-05-15T01:48:40;101080.00;;;13.64;76.21
64632;BME280;58358;50.936;0.246;2023-05-15T01:51:05;101075.22;;;13.21;77.22
64632;BME280;58358;50.936;0.246;2023-05-15T01:53:30;101074.53;;;13.30;77.62
64632;BME280;58358;50.936;0.246;2023-05-15T01:55:55;101073.50;;;13.13;76.29
64632;BME280;58358;50.936;0.246;2023-05-15T01:58:20;101074.53;;;13.32;76.18
64632;BME280;58358;50.936;0.246;2023-05-15T02:00:45;101075.24;;;13.12;77.14
64632;BME280;58358;50.936;0.246;2023-05-15T02:03:10;101072.18;;;12.63;78.10
64632;BME280;58358;50.936;0.246;2023-05-15T02:05:35;101071.73;;;12.08;80.14
64632;BME280;58358;50.936;0.246;2023-05-15T02:08:01;101074.38;;;12.49;79.72
64632;BME280;58358;50.936;0.246;2023-05-15T02:10:26;101077.39;;;13.47;75.72
64632;BME280;58358;50.936;0.246;2023-05-15T02:12:51;101079.12;;;13.81;74.74
64632;BME280;58358;50.936;0.246;2023-05-15T02:15:18;101078.46;;;13.35;76.11
64632;BME280;58358;50.936;0.246;2023-05-15T02:17:43;101076.44;;;12.17;78.97
64632;BME280;58358;50.936;0.246;2023-05-15T02:20:08;101081.60;;;13.16;75.88
64632;BME280;58358;50.936;0.246;2023-05-15T02:22:33;101083.78;;;13.42;75.67
64632;BME280;58358;50.936;0.246;2023-05-15T02:24:59;101085.45;;;12.95;76.73
64632;BME280;58358;50.936;0.246;2023-05-15T02:27:27;101085.83;;;12.16;79.50
64632;BME280;58358;50.936;0.246;2023-05-15T02:30:07;101085.17;;;11.66;80.80
64632;BME280;58358;50.936;0.246;2023-05-15T02:32:20;101089.63;;;13.34;77.83
64632;BME280;58358;50.936;0.246;2023-05-15T02:34:48;101087.32;;;12.40;79.25
64632;BME280;58358;50.936;0.246;2023-05-15T02:37:13;101089.27;;;13.14;76.47
64632;BME280;58358;50.936;0.246;2023-05-15T02:39:33;101088.69;;;11.50;81.34
64632;BME280;58358;50.936;0.246;2023-05-15T02:41:59;101091.12;;;12.85;77.65
64632;BME280;58358;50.936;0.246;2023-05-15T02:44:23;101091.87;;;13.57;75.58
64632;BME280;58358;50.936;0.246;2023-05-15T02:46:49;101086.15;;;12.19;77.79
64632;BME280;58358;50.936;0.246;2023-05-15T02:49:14;101088.34;;;13.49;74.30
64632;BME280;58358;50.936;0.246;2023-05-15T02:51:39;101087.95;;;13.66;72.76
64632;BME280;58358;50.936;0.246;2023-05-15T02:54:05;101085.37;;;13.00;74.55
64632;BME280;58358;50.936;0.246;2023-05-15T02:56:31;101081.84;;;13.45;73.82
64632;BME280;58358;50.936;0.246;2023-05-15T02:58:55;101081.55;;;13.66;73.17
64632;BME280;58358;50.936;0.246;2023-05-15T03:01:21;101086.05;;;13.13;77.02
64632;BME280;58358;50.936;0.246;2023-05-15T03:03:46;101087.76;;;12.98;76.32
64632;BME280;58358;50.936;0.246;2023-05-15T03:06:12;101090.79;;;12.78;76.40
64632;BME280;58358;50.936;0.246;2023-05-15T03:08:37;101090.32;;;12.27;79.11
64632;BME280;58358;50.936;0.246;2023-05-15T03:11:03;101092.00;;;12.52;78.13
64632;BME280;58358;50.936;0.246;2023-05-15T03:13:29;101091.66;;;13.42;74.29
64632;BME280;58358;50.936;0.246;2023-05-15T03:15:54;101091.73;;;12.81;76.42
64632;BME280;58358;50.936;0.246;2023-05-15T03:18:20;101092.46;;;13.12;76.25
64632;BME280;58358;50.936;0.246;2023-05-15T03:20:46;101088.84;;;12.78;76.88
64632;BME280;58358;50.936;0.246;2023-05-15T03:23:11;101081.66;;;12.93;76.03
64632;BME280;58358;50.936;0.246;2023-05-15T03:25:37;101074.86;;;12.56;79.02
64632;BME280;58358;50.936;0.246;2023-05-15T03:28:02;101071.92;;;12.31;78.47
64632;BME280;58358;50.936;0.246;2023-05-15T03:30:28;101074.20;;;12.91;75.90
64632;BME280;58358;50.936;0.246;2023-05-15T03:32:53;101077.66;;;13.05;74.60
64632;BME280;58358;50.936;0.246;2023-05-15T03:35:19;101083.46;;;13.10;72.44
64632;BME280;58358;50.936;0.246;2023-05-15T03:37:45;101079.59;;;13.02;72.21
64632;BME280;58358;50.936;0.246;2023-05-15T03:40:11;101080.96;;;13.56;71.96
64632;BME280;58358;50.936;0.246;2023-05-15T03:42:36;101077.83;;;12.94;72.83
64632;BME280;58358;50.936;0.246;2023-05-15T03:45:02;101073.68;;;12.46;74.31
64632;BME280;58358;50.936;0.246;2023-05-15T03:47:27;101068.50;;;11.51;78.75
64632;BME280;58358;50.936;0.246;2023-05-15T03:49:52;101071.56;;;12.32;75.66
64632;BME280;58358;50.936;0.246;2023-05-15T03:52:18;101069.52;;;12.05;76.35
64632;BME280;58358;50.936;0.246;2023-05-15T03:54:44;101068.53;;;12.41;75.53
64632;BME280;58358;50.936;0.246;2023-05-15T03:57:09;101068.85;;;12.54;75.92
64632;BME280;58358;50.936;0.246;2023-05-15T03:59:35;101067.52;;;11.59;80.62
64632;BME280;58358;50.936;0.246;2023-05-15T04:02:01;101071.54;;;11.51;80.81
64632;BME280;58358;50.936;0.246;2023-05-15T04:04:26;101074.30;;;10.12;87.52
64632;BME280;58358;50.936;0.246;2023-05-15T04:06:52;101070.94;;;9.39;91.66
64632;BME280;58358;50.936;0.246;2023-05-15T04:09:18;101073.68;;;10.26;87.87
64632;BME280;58358;50.936;0.246;2023-05-15T04:11:44;101072.51;;;10.25;88.86
64632;BME280;58358;50.936;0.246;2023-05-15T04:14:09;101074.07;;;10.05;90.93
64632;BME280;58358;50.936;0.246;2023-05-15T04:16:35;101075.81;;;10.36;90.09
64632;BME280;58358;50.936;0.246;2023-05-15T04:19:01;101074.25;;;9.80;89.84
64632;BME280;58358;50.936;0.246;2023-05-15T04:21:27;101072.44;;;9.92;87.83
64632;BME280;58358;50.936;0.246;2023-05-15T04:23:52;101069.80;;;10.89;87.56
64632;BME280;58358;50.936;0.246;2023-05-15T04:26:18;101077.68;;;10.29;87.76
64632;BME280;58358;50.936;0.246;2023-05-15T04:28:44;101083.19;;;10.15;87.77
64632;BME280;58358;50.936;0.246;2023-05-15T04:31:10;101090.45;;;10.37;88.12
64632;BME280;58358;50.936;0.246;2023-05-15T04:33:35;101089.99;;;10.10;88.83
64632;BME280;58358;50.936;0.246;2023-05-15T04:36:01;101094.10;;;10.75;87.90
64632;BME280;58358;50.936;0.246;2023-05-15T04:38:26;101092.01;;;11.01;86.27
64632;BME280;58358;50.936;0.246;2023-05-15T04:40:52;101089.01;;;10.98;85.73
64632;BME280;58358;50.936;0.246;2023-05-15T04:43:18;101089.23;;;10.44;89.53
64632;BME280;58358;50.936;0.246;2023-05-15T04:45:44;101090.68;;;10.52;88.18
64632;BME280;58358;50.936;0.246;2023-05-15T04:48:10;101088.78;;;10.11;90.03
64632;BME280;58358;50.936;0.246;2023-05-15T04:50:35;101092.70;;;9.80;93.48
64632;BME280;58358;50.936;0.246;2023-05-15T04:53:00;101090.14;;;9.74;94.34
64632;BME280;58358;50.936;0.246;2023-05-15T04:55:25;101094.93;;;9.91;92.73
64632;BME280;58358;50.936;0.246;2023-05-15T04:57:51;101097.28;;;10.75;88.94
64632;BME280;58358;50.936;0.246;2023-05-15T05:00:17;101092.72;;;10.20;91.35
64632;BME280;58358;50.936;0.246;2023-05-15T05:02:42;101102.40;;;9.56;93.02
64632;BME280;58358;50.936;0.246;2023-05-15T05:05:08;101106.01;;;9.87;91.86
64632;BME280;58358;50.936;0.246;2023-05-15T05:07:34;101103.74;;;9.92;94.47
64632;BME280;58358;50.936;0.246;2023-05-15T05:09:59;101104.45;;;9.50;95.85
64632;BME280;58358;50.936;0.246;2023-05-15T05:12:24;101100.83;;;10.56;90.65
64632;BME280;58358;50.936;0.246;2023-05-15T05:14:50;101109.82;;;10.57;90.77
64632;BME280;58358;50.936;0.246;2023-05-15T05:17:16;101111.30;;;10.89;89.34
64632;BME280;58358;50.936;0.246;2023-05-15T05:19:42;101110.63;;;10.73;90.23
64632;BME280;58358;50.936;0.246;2023-05-15T05:22:07;101114.66;;;10.94;89.62
64632;BME280;58358;50.936;0.246;2023-05-15T05:24:33;101112.06;;;10.46;90.88
64632;BME280;58358;50.936;0.246;2023-05-15T05:26:58;101116.07;;;10.06;92.60
64632;BME280;58358;50.936;0.246;2023-05-15T05:29:24;101119.88;;;11.16;88.03
64632;BME280;58358;50.936;0.246;2023-05-15T05:31:49;101121.97;;;9.79;90.33
64632;BME280;58358;50.936;0.246;2023-05-15T05:34:15;101128.37;;;10.86;88.81
64632;BME280;58358;50.936;0.246;2023-05-15T05:36:41;101139.89;;;10.61;87.27
64632;BME280;58358;50.936;0.246;2023-05-15T05:39:06;101130.60;;;9.91;92.80
64632;BME280;58358;50.936;0.246;2023-05-15T05:41:32;101127.55;;;10.30;91.32
64632;BME280;58358;50.936;0.246;2023-05-15T05:43:58;101141.36;;;9.92;91.22
64632;BME280;58358;50.936;0.246;2023-05-15T05:46:23;101127.96;;;10.56;89.70
64632;BME280;58358;50.936;0.246;2023-05-15T05:48:49;101141.80;;;10.73;89.02
64632;BME280;58358;50.936;0.246;2023-05-15T05:51:14;101140.10;;;10.01;92.36
64632;BME280;58358;50.936;0.246;2023-05-15T05:53:40;101144.54;;;9.71;92.39
64632;BME280;58358;50.936;0.246;2023-05-15T05:56:06;101144.36;;;9.83;90.95
64632;BME280;58358;50.936;0.246;2023-05-15T05:58:31;101154.01;;;10.67;90.07
64632;BME280;58358;50.936;0.246;2023-05-15T06:00:57;101165.93;;;9.85;90.68
64632;BME280;58358;50.936;0.246;2023-05-15T06:03:23;101166.65;;;9.14;91.00
64632;BME280;58358;50.936;0.246;2023-05-15T06:05:48;101168.84;;;9.10;91.38
64632;BME280;58358;50.936;0.246;2023-05-15T06:08:14;101176.35;;;9.57;87.78
64632;BME280;58358;50.936;0.246;2023-05-15T06:10:40;101176.40;;;8.78;90.31
64632;BME280;58358;50.936;0.246;2023-05-15T06:13:05;101179.19;;;9.24;89.19
64632;BME280;58358;50.936;0.246;2023-05-15T06:15:31;101178.90;;;9.21;88.06
64632;BME280;58358;50.936;0.246;2023-05-15T06:17:56;101189.02;;;8.98;88.17
64632;BME280;58358;50.936;0.246;2023-05-15T06:20:22;101183.42;;;9.26;86.43
64632;BME280;58358;50.936;0.246;2023-05-15T06:22:47;101190.99;;;9.76;87.27
64632;BME280;58358;50.936;0.246;2023-05-15T06:25:13;101184.54;;;9.17;87.86
64632;BME280;58358;50.936;0.246;2023-05-15T06:27:40;101190.21;;;9.27;88.35
64632;BME280;58358;50.936;0.246;2023-05-15T06:30:05;101198.76;;;9.73;86.29
64632;BME280;58358;50.936;0.246;2023-05-15T06:32:30;101190.97;;;10.25;84.19
64632;BME280;58358;50.936;0.246;2023-05-15T06:34:56;101202.25;;;10.15;83.25
64632;BME280;58358;50.936;0.246;2023-05-15T06:37:22;101198.99;;;10.21;83.95
64632;BME280;58358;50.936;0.246;2023-05-15T06:39:47;101192.15;;;9.33;88.26
64632;BME280;58358;50.936;0.246;2023-05-15T06:42:13;101193.53;;;9.47;88.08
64632;BME280;58358;50.936;0.246;2023-05-15T06:44:38;101202.00;;;9.99;86.15
64632;BME280;58358;50.936;0.246;2023-05-15T06:47:05;101193.74;;;8.73;88.53
64632;BME280;58358;50.936;0.246;2023-05-15T06:49:30;101186.28;;;9.42;89.25
64632;BME280;58358;50.936;0.246;2023-05-15T06:51:55;101191.96;;;9.15;89.60
64632;BME280;58358;50.936;0.246;2023-05-15T06:54:20;101189.53;;;10.84;83.80
64632;BME280;58358;50.936;0.246;2023-05-15T06:56:46;101188.85;;;10.06;83.06
64632;BME280;58358;50.936;0.246;2023-05-15T06:59:12;101192.61;;;9.72;87.98
64632;BME280;58358;50.936;0.246;2023-05-15T07:01:39;101192.39;;;9.82;86.08
64632;BME280;58358;50.936;0.246;2023-05-15T07:04:04;101188.38;;;10.48;82.91
64632;BME280;58358;50.936;0.246;2023-05-15T07:06:29;101190.69;;;9.42;82.17
64632;BME280;58358;50.936;0.246;2023-05-15T07:08:55;101198.94;;;9.65;82.36
64632;BME280;58358;50.936;0.246;2023-05-15T07:11:20;101198.80;;;9.41;81.10
64632;BME280;58358;50.936;0.246;2023-05-15T07:13:46;101198.82;;;10.68;77.74
64632;BME280;58358;50.936;0.246;2023-05-15T07:16:11;101204.89;;;10.27;77.72
64632;BME280;58358;50.936;0.246;2023-05-15T07:18:38;101200.44;;;10.39;75.77
64632;BME280;58358;50.936;0.246;2023-05-15T07:21:03;101211.14;;;10.15;75.90
64632;BME280;58358;50.936;0.246;2023-05-15T07:23:29;101211.40;;;11.19;71.20
64632;BME280;58358;50.936;0.246;2023-05-15T07:25:55;101211.09;;;9.58;75.94
64632;BME280;58358;50.936;0.246;2023-05-15T07:28:20;101211.74;;;9.45;75.49
64632;BME280;58358;50.936;0.246;2023-05-15T07:30:46;101210.02;;;10.26;73.03
64632;BME280;58358;50.936;0.246;2023-05-15T07:33:12;101206.30;;;9.74;73.23
64632;BME280;58358;50.936;0.246;2023-05-15T07:35:38;101210.07;;;9.20;74.34
64632;BME280;58358;50.936;0.246;2023-05-15T07:38:03;101214.62;;;10.58;71.03
64632;BME280;58358;50.936;0.246;2023-05-15T07:40:29;101215.06;;;10.31;70.26
64632;BME280;58358;50.936;0.246;2023-05-15T07:42:54;101224.73;;;9.85;70.80
64632;BME280;58358;50.936;0.246;2023-05-15T07:45:20;101219.30;;;9.58;72.66
64632;BME280;58358;50.936;0.246;2023-05-15T07:47:46;101217.84;;;9.04;74.48
64632;BME280;58358;50.936;0.246;2023-05-15T07:50:12;101221.28;;;9.90;73.01
64632;BME280;58358;50.936;0.246;2023-05-15T07:52:38;101222.57;;;9.65;71.89
64632;BME280;58358;50.936;0.246;2023-05-15T07:55:04;101225.20;;;10.53;70.34
64632;BME280;58358;50.936;0.246;2023-05-15T07:57:29;101227.85;;;11.35;67.76
64632;BME280;58358;50.936;0.246;2023-05-15T07:59:54;101229.37;;;10.59;68.20
64632;BME280;58358;50.936;0.246;2023-05-15T08:02:20;101234.93;;;10.17;71.23
64632;BME280;58358;50.936;0.246;2023-05-15T08:04:46;101237.80;;;10.36;68.06
64632;BME280;58358;50.936;0.246;2023-05-15T08:07:12;101245.85;;;11.15;67.92
64632;BME280;58358;50.936;0.246;2023-05-15T08:09:39;101244.74;;;10.79;69.23
64632;BME280;58358;50.936;0.246;2023-05-15T08:12:14;101244.37;;;11.61;67.16
64632;BME280;58358;50.936;0.246;2023-05-15T08:14:29;101252.79;;;10.71;68.71
64632;BME280;58358;50.936;0.246;2023-05-15T08:16:54;101258.03;;;10.27;68.76
64632;BME280;58358;50.936;0.246;2023-05-15T08:19:20;101269.43;;;10.29;67.83
64632;BME280;58358;50.936;0.246;2023-05-15T08:21:46;101260.57;;;11.14;65.93
64632;BME280;58358;50.936;0.246;2023-05-15T08:24:11;101265.07;;;11.12;63.37
64632;BME280;58358;50.936;0.246;2023-05-15T08:26:37;101265.39;;;11.29;63.97
64632;BME280;58358;50.936;0.246;2023-05-15T08:29:03;101274.50;;;10.48;65.14
64632;BME280;58358;50.936;0.246;2023-05-15T08:31:28;101267.20;;;11.31;61.75
64632;BME280;58358;50.936;0.246;2023-05-15T08:33:54;101270.15;;;11.79;58.77
64632;BME280;58358;50.936;0.246;2023-05-15T08:36:20;101275.51;;;10.60;63.08
64632;BME280;58358;50.936;0.246;2023-05-15T08:38:45;101267.56;;;11.34;59.62
64632;BME280;58358;50.936;0.246;2023-05-15T08:41:19;101281.61;;;10.35;60.93
64632;BME280;58358;50.936;0.246;2023-05-15T08:43:38;101259.59;;;9.96;60.94
64632;BME280;58358;50.936;0.246;2023-05-15T08:46:03;101263.88;;;9.44;58.75
64632;BME280;58358;50.936;0.246;2023-05-15T08:48:29;101268.86;;;9.71;55.51
64632;BME280;58358;50.936;0.246;2023-05-15T08:50:55;101273.30;;;10.15;55.07
64632;BME280;58358;50.936;0.246;2023-05-15T08:53:19;101276.03;;;10.07;57.54
64632;BME280;58358;50.936;0.246;2023-05-15T08:55:45;101283.40;;;9.58;58.83
64632;BME280;58358;50.936;0.246;2023-05-15T08:58:11;101273.80;;;9.64;56.54
64632;BME280;58358;50.936;0.246;2023-05-15T09:00:37;101274.74;;;9.93;57.65
64632;BME280;58358;50.936;0.246;2023-05-15T09:03:02;101274.75;;;10.26;55.89
64632;BME280;58358;50.936;0.246;2023-05-15T09:05:29;101267.01;;;11.37;54.55
64632;BME280;58358;50.936;0.246;2023-05-15T09:07:54;101264.71;;;10.57;52.87
64632;BME280;58358;50.936;0.246;2023-05-15T09:10:20;101272.82;;;11.01;51.28
64632;BME280;58358;50.936;0.246;2023-05-15T09:12:45;101274.80;;;11.06;52.42
64632;BME280;58358;50.936;0.246;2023-05-15T09:15:13;101276.31;;;10.92;49.36
64632;BME280;58358;50.936;0.246;2023-05-15T09:17:37;101280.32;;;10.55;50.46
64632;BME280;58358;50.936;0.246;2023-05-15T09:20:03;101281.39;;;11.11;48.75
64632;BME280;58358;50.936;0.246;2023-05-15T09:22:33;101270.71;;;10.89;45.52
64632;BME280;58358;50.936;0.246;2023-05-15T09:24:54;101299.17;;;10.39;46.90
64632;BME280;58358;50.936;0.246;2023-05-15T09:27:20;101286.03;;;10.49;48.84
64632;BME280;58358;50.936;0.246;2023-05-15T09:29:45;101286.90;;;10.90;46.60
64632;BME280;58358;50.936;0.246;2023-05-15T09:32:13;101277.96;;;11.16;46.55
64632;BME280;58358;50.936;0.246;2023-05-15T09:34:38;101269.53;;;11.13;46.42
64632;BME280;58358;50.936;0.246;2023-05-15T09:37:05;101278.76;;;11.87;46.11
64632;BME280;58358;50.936;0.246;2023-05-15T09:39:28;101278.49;;;12.57;43.44
64632;BME280;58358;50.936;0.246;2023-05-15T09:44:24;101279.91;;;11.98;44.09
64632;BME280;58358;50.936;0.246;2023-05-15T09:46:45;101283.49;;;11.18;44.69
64632;BME280;58358;50.936;0.246;2023-05-15T09:49:11;101293.34;;;10.63;47.96
64632;BME280;58358;50.936;0.246;2023-05-15T09:51:36;101287.51;;;10.65;47.60
64632;BME280;58358;50.936;0.246;2023-05-15T09:54:02;101292.74;;;10.69;47.88
64632;BME280;58358;50.936;0.246;2023-05-15T09:56:28;101276.50;;;10.89;47.11
64632;BME280;58358;50.936;0.246;2023-05-15T09:58:55;101279.77;;;10.69;47.72
64632;BME280;58358;50.936;0.246;2023-05-15T10:01:20;101278.97;;;10.98;49.42
64632;BME280;58358;50.936;0.246;2023-05-15T10:03:56;101292.36;;;10.74;49.28
64632;BME280;58358;50.936;0.246;2023-05-15T10:06:16;101286.77;;;10.81;46.83
64632;BME280;58358;50.936;0.246;2023-05-15T10:08:39;101296.44;;;11.09;46.57
64632;BME280;58358;50.936;0.246;2023-05-15T10:11:02;101284.26;;;11.11;44.52
64632;BME280;58358;50.936;0.246;2023-05-15T10:13:30;101279.15;;;11.32;45.70
64632;BME280;58358;50.936;0.246;2023-05-15T10:15:54;101281.15;;;11.66;45.09
64632;BME280;58358;50.936;0.246;2023-05-15T10:18:20;101285.47;;;12.05;44.83
64632;BME280;58358;50.936;0.246;2023-05-15T10:20:45;101286.43;;;12.36;44.16
64632;BME280;58358;50.936;0.246;2023-05-15T10:23:12;101280.95;;;13.06;42.83
64632;BME280;58358;50.936;0.246;2023-05-15T10:25:41;101280.86;;;13.15;42.37
64632;BME280;58358;50.936;0.246;2023-05-15T10:28:02;101286.19;;;12.84;43.26
64632;BME280;58358;50.936;0.246;2023-05-15T10:30:28;101290.59;;;12.42;45.95
64632;BME280;58358;50.936;0.246;2023-05-15T10:32:54;101297.13;;;11.87;45.17
64632;BME280;58358;50.936;0.246;2023-05-15T10:35:19;101282.87;;;12.56;43.24
64632;BME280;58358;50.936;0.246;2023-05-15T10:37:46;101284.77;;;13.62;41.73
64632;BME280;58358;50.936;0.246;2023-05-15T10:40:10;101291.21;;;13.48;45.09
64632;BME280;58358;50.936;0.246;2023-05-15T10:42:36;101289.34;;;13.02;43.57
64632;BME280;58358;50.936;0.246;2023-05-15T10:45:01;101291.00;;;12.97;41.96
64632;BME280;58358;50.936;0.246;2023-05-15T10:47:27;101290.29;;;13.04;41.35
64632;BME280;58358;50.936;0.246;2023-05-15T10:49:52;101295.11;;;12.83;41.07
64632;BME280;58358;50.936;0.246;2023-05-15T10:52:19;101294.84;;;11.98;43.53
64632;BME280;58358;50.936;0.246;2023-05-15T10:54:44;101295.82;;;11.76;43.25
64632;BME280;58358;50.936;0.246;2023-05-15T10:57:09;101297.84;;;12.17;42.85
64632;BME280;58358;50.936;0.246;2023-05-15T10:59:35;101287.71;;;12.59;43.91
64632;BME280;58358;50.936;0.246;2023-05-15T11:04:31;101296.76;;;12.22;42.15
64632;BME280;58358;50.936;0.246;2023-05-15T11:09:32;101298.59;;;12.46;40.39
64632;BME280;58358;50.936;0.246;2023-05-15T11:11:53;101300.66;;;13.05;39.66
64632;BME280;58358;50.936;0.246;2023-05-15T11:14:12;101308.74;;;12.32;39.19
64632;BME280;58358;50.936;0.246;2023-05-15T11:16:56;101311.42;;;12.73;39.43
64632;BME280;58358;50.936;0.246;2023-05-15T11:19:00;101319.96;;;13.72;39.18
64632;BME280;58358;50.936;0.246;2023-05-15T11:21:30;101320.34;;;13.28;37.84
64632;BME280;58358;50.936;0.246;2023-05-15T11:28:43;101323.01;;;12.16;39.78
64632;BME280;58358;50.936;0.246;2023-05-15T11:31:08;101329.65;;;14.10;37.51
64632;BME280;58358;50.936;0.246;2023-05-15T11:33:37;101333.55;;;12.80;36.51
64632;BME280;58358;50.936;0.246;2023-05-15T11:36:00;101324.34;;;12.87;38.26
64632;BME280;58358;50.936;0.246;2023-05-15T11:38:26;101326.55;;;12.80;38.69
64632;BME280;58358;50.936;0.246;2023-05-15T11:40:52;101326.63;;;12.37;40.80
64632;BME280;58358;50.936;0.246;2023-05-15T11:43:19;101328.99;;;14.02;38.07
64632;BME280;58358;50.936;0.246;2023-05-15T11:45:44;101335.64;;;11.60;38.33
64632;BME280;58358;50.936;0.246;2023-05-15T11:48:13;101330.46;;;12.08;36.69
64632;BME280;58358;50.936;0.246;2023-05-15T11:50:34;101339.08;;;12.54;37.13
64632;BME280;58358;50.936;0.246;2023-05-15T11:53:05;101349.19;;;12.30;37.14
64632;BME280;58358;50.936;0.246;2023-05-15T11:55:25;101341.71;;;12.58;36.82
64632;BME280;58358;50.936;0.246;2023-05-15T11:57:51;101346.48;;;12.19;36.73
64632;BME280;58358;50.936;0.246;2023-05-15T12:00:17;101334.27;;;12.72;36.79
64632;BME280;58358;50.936;0.246;2023-05-15T12:02:42;101340.52;;;12.79;37.34
64632;BME280;58358;50.936;0.246;2023-05-15T12:05:09;101337.27;;;12.90;35.19
64632;BME280;58358;50.936;0.246;2023-05-15T12:07:36;101340.74;;;13.06;35.70
64632;BME280;58358;50.936;0.246;2023-05-15T12:10:00;101332.35;;;12.93;35.75
64632;BME280;58358;50.936;0.246;2023-05-15T12:12:25;101330.78;;;12.86;37.19
64632;BME280;58358;50.936;0.246;2023-05-15T12:14:50;101342.77;;;11.47;39.68
64632;BME280;58358;50.936;0.246;2023-05-15T12:17:17;101341.18;;;12.34;39.56
64632;BME280;58358;50.936;0.246;2023-05-15T12:19:42;101355.80;;;12.60;40.60
64632;BME280;58358;50.936;0.246;2023-05-15T12:22:08;101342.18;;;12.91;38.95
64632;BME280;58358;50.936;0.246;2023-05-15T12:24:36;101354.96;;;12.20;39.47
64632;BME280;58358;50.936;0.246;2023-05-15T12:26:59;101348.11;;;12.37;39.61
64632;BME280;58358;50.936;0.246;2023-05-15T12:29:26;101352.09;;;12.76;39.28
64632;BME280;58358;50.936;0.246;2023-05-15T12:31:50;101361.20;;;12.18;39.47
64632;BME280;58358;50.936;0.246;2023-05-15T12:34:16;101363.18;;;11.97;40.71
64632;BME280;58358;50.936;0.246;2023-05-15T12:36:41;101373.05;;;12.31;40.70
64632;BME280;58358;50.936;0.246;2023-05-15T12:39:07;101363.98;;;13.42;38.61
64632;BME280;58358;50.936;0.246;2023-05-15T12:41:33;101373.12;;;12.69;38.65
64632;BME280;58358;50.936;0.246;2023-05-15T12:43:58;101383.81;;;12.79;37.76
64632;BME280;58358;50.936;0.246;2023-05-15T12:46:24;101374.92;;;12.52;38.69
64632;BME280;58358;50.936;0.246;2023-05-15T12:48:50;101365.38;;;12.73;37.89
64632;BME280;58358;50.936;0.246;2023-05-15T12:51:16;101360.67;;;13.51;38.47
64632;BME280;58358;50.936;0.246;2023-05-15T12:53:41;101375.58;;;13.06;39.60
64632;BME280;58358;50.936;0.246;2023-05-15T12:56:07;101393.24;;;12.64;40.43
64632;BME280;58358;50.936;0.246;2023-05-15T12:58:32;101386.11;;;12.13;38.40